sensor_id;sensor_type;location;lat;lon;timestamp;pressure;altitude;pressure_sealevel;temperature;humidity
75972;BME280;64651;47.540;19.088;2023-05-14T00:02:56;100973.28;;;11.73;82.11
75972;BME280;64651;47.540;19.088;2023-05-14T00:07:59;100958.16;;;11.76;82.16
75972;BME280;64651;47.540;19.088;2023-05-14T00:13:01;100940.75;;;11.70;82.36
75972;BME280;64651;47.540;19.088;2023-05-14T00:18:03;100959.81;;;11.82;82.30
75972;BME280;64651;47.540;19.088;2023-05-14T00:23:05;100941.34;;;11.83;81.69
75972;BME280;64651;47.540;19.088;2023-05-14T00:28:08;100935.25;;;11.86;81.81
75972;BME280;64651;47.540;19.088;2023-05-14T00:33:10;100948.78;;;11.92;81.93
75972;BME280;64651;47.540;19.088;2023-05-14T00:38:12;100935.25;;;11.86;81.45
75972;BME280;64651;47.540;19.088;2023-05-14T00:43:18;100947.69;;;11.93;80.91
75972;BME280;64651;47.540;19.088;2023-05-14T00:48:21;100946.28;;;11.96;80.36
75972;BME280;64651;47.540;19.088;2023-05-14T00:53:24;100945.75;;;11.94;79.36
75972;BME280;64651;47.540;19.088;2023-05-14T00:58:27;100936.66;;;11.93;78.88
75972;BME280;64651;47.540;19.088;2023-05-14T01:03:30;100938.31;;;11.99;78.58
75972;BME280;64651;47.540;19.088;2023-05-14T01:08:49;100922.03;;;11.93;78.39
75972;BME280;64651;47.540;19.088;2023-05-14T01:19:41;100915.16;;;12.00;78.23
75972;BME280;64651;47.540;19.088;2023-05-14T01:24:43;100907.41;;;12.02;77.77
75972;BME280;64651;47.540;19.088;2023-05-14T01:29:55;100906.56;;;12.02;78.15
75972;BME280;64651;47.540;19.088;2023-05-14T01:35:00;100898.31;;;12.02;79.94
75972;BME280;64651;47.540;19.088;2023-05-14T01:40:02;100900.53;;;11.95;80.21
75972;BME280;64651;47.540;19.088;2023-05-14T01:45:06;100885.06;;;11.84;80.78
75972;BME280;64651;47.540;19.088;2023-05-14T01:50:09;100877.06;;;11.72;81.64
75972;BME280;64651;47.540;19.088;2023-05-14T01:55:11;100862.72;;;11.65;82.53
75972;BME280;64651;47.540;19.088;2023-05-14T02:00:13;100869.88;;;11.66;83.31
75972;BME280;64651;47.540;19.088;2023-05-14T02:05:16;100870.44;;;11.58;83.68
75972;BME280;64651;47.540;19.088;2023-05-14T02:10:18;100852.53;;;11.50;83.36
75972;BME280;64651;47.540;19.088;2023-05-14T02:15:20;100840.41;;;11.51;82.56
75972;BME280;64651;47.540;19.088;2023-05-14T02:20:23;100855.84;;;11.57;82.49
75972;BME280;64651;47.540;19.088;2023-05-14T02:25:25;100845.09;;;11.56;82.57
75972;BME280;64651;47.540;19.088;2023-05-14T02:30:27;100824.97;;;11.45;82.77
75972;BME280;64651;47.540;19.088;2023-05-14T02:35:30;100842.06;;;11.52;82.89
75972;BME280;64651;47.540;19.088;2023-05-14T02:40:33;100832.12;;;11.41;81.70
75972;BME280;64651;47.540;19.088;2023-05-14T02:45:35;100841.25;;;11.52;82.10
75972;BME280;64651;47.540;19.088;2023-05-14T02:50:37;100839.84;;;11.49;82.37
75972;BME280;64651;47.540;19.088;2023-05-14T02:55:39;100835.44;;;11.48;82.49
75972;BME280;64651;47.540;19.088;2023-05-14T03:00:42;100826.06;;;11.39;82.53
75972;BME280;64651;47.540;19.088;2023-05-14T03:05:44;100830.50;;;11.40;82.71
75972;BME280;64651;47.540;19.088;2023-05-14T03:10:47;100825.50;;;11.42;82.36
75972;BME280;64651;47.540;19.088;2023-05-14T03:15:49;100823.31;;;11.49;82.24
75972;BME280;64651;47.540;19.088;2023-05-14T03:20:55;100781.97;;;11.29;80.83
75972;BME280;64651;47.540;19.088;2023-05-14T03:25:58;100807.03;;;11.53;79.68
75972;BME280;64651;47.540;19.088;2023-05-14T03:31:00;100823.03;;;11.66;79.14
75972;BME280;64651;47.540;19.088;2023-05-14T03:36:03;100815.31;;;11.63;78.71
75972;BME280;64651;47.540;19.088;2023-05-14T03:41:06;100823.63;;;11.83;78.89
75972;BME280;64651;47.540;19.088;2023-05-14T03:46:08;100823.31;;;11.95;77.93
75972;BME280;64651;47.540;19.088;2023-05-14T03:51:10;100829.34;;;12.02;78.74
75972;BME280;64651;47.540;19.088;2023-05-14T03:56:13;100840.94;;;12.04;78.57
75972;BME280;64651;47.540;19.088;2023-05-14T04:01:15;100823.28;;;12.05;78.81
75972;BME280;64651;47.540;19.088;2023-05-14T04:06:17;100810.06;;;12.07;78.32
75972;BME280;64651;47.540;19.088;2023-05-14T04:11:20;100812.22;;;12.15;77.67
75972;BME280;64651;47.540;19.088;2023-05-14T04:16:22;100825.47;;;12.18;76.96
75972;BME280;64651;47.540;19.088;2023-05-14T04:21:24;100806.72;;;12.15;76.37
75972;BME280;64651;47.540;19.088;2023-05-14T04:26:26;100810.84;;;12.23;75.90
75972;BME280;64651;47.540;19.088;2023-05-14T04:31:29;100806.13;;;12.28;74.60
75972;BME280;64651;47.540;19.088;2023-05-14T04:36:31;100803.91;;;12.35;73.90
75972;BME280;64651;47.540;19.088;2023-05-14T04:41:33;100797.00;;;12.38;73.93
75972;BME280;64651;47.540;19.088;2023-05-14T04:46:35;100788.19;;;12.31;73.88
75972;BME280;64651;47.540;19.088;2023-05-14T04:51:38;100794.78;;;12.40;73.88
75972;BME280;64651;47.540;19.088;2023-05-14T04:56:40;100797.22;;;12.46;73.45
75972;BME280;64651;47.540;19.088;2023-05-14T05:01:42;100797.81;;;12.43;73.88
75972;BME280;64651;47.540;19.088;2023-05-14T05:06:46;100784.56;;;12.40;72.39
75972;BME280;64651;47.540;19.088;2023-05-14T05:11:48;100794.16;;;12.53;72.22
75972;BME280;64651;47.540;19.088;2023-05-14T05:16:50;100786.16;;;12.51;72.74
75972;BME280;64651;47.540;19.088;2023-05-14T05:21:52;100790.53;;;12.68;73.28
75972;BME280;64651;47.540;19.088;2023-05-14T05:26:54;100789.91;;;12.76;73.48
75972;BME280;64651;47.540;19.088;2023-05-14T05:31:57;100780.78;;;12.75;72.64
75972;BME280;64651;47.540;19.088;2023-05-14T05:37:00;100764.53;;;12.74;72.24
75972;BME280;64651;47.540;19.088;2023-05-14T05:42:02;100789.59;;;12.82;72.24
75972;BME280;64651;47.540;19.088;2023-05-14T05:47:05;100778.78;;;12.91;72.70
75972;BME280;64651;47.540;19.088;2023-05-14T05:52:07;100781.22;;;12.97;71.49
75972;BME280;64651;47.540;19.088;2023-05-14T05:57:09;100766.37;;;12.88;71.44
75972;BME280;64651;47.540;19.088;2023-05-14T06:02:11;100775.66;;;13.02;70.39
75972;BME280;64651;47.540;19.088;2023-05-14T06:07:14;100773.97;;;13.07;71.24
75972;BME280;64651;47.540;19.088;2023-05-14T06:12:16;100782.72;;;13.24;72.42
75972;BME280;64651;47.540;19.088;2023-05-14T06:17:18;100792.97;;;13.18;71.34
75972;BME280;64651;47.540;19.088;2023-05-14T06:22:20;100788.88;;;13.11;70.97
75972;BME280;64651;47.540;19.088;2023-05-14T06:27:22;100778.19;;;12.99;71.14
75972;BME280;64651;47.540;19.088;2023-05-14T06:32:24;100780.88;;;13.09;72.35
75972;BME280;64651;47.540;19.088;2023-05-14T06:37:27;100790.81;;;13.10;73.72
75972;BME280;64651;47.540;19.088;2023-05-14T06:42:29;100787.28;;;13.05;75.31
75972;BME280;64651;47.540;19.088;2023-05-14T06:47:31;100794.13;;;13.12;74.59
75972;BME280;64651;47.540;19.088;2023-05-14T06:52:35;100781.41;;;13.16;74.42
75972;BME280;64651;47.540;19.088;2023-05-14T06:57:38;100777.69;;;13.31;75.08
75972;BME280;64651;47.540;19.088;2023-05-14T07:02:41;100782.00;;;13.47;75.19
75972;BME280;64651;47.540;19.088;2023-05-14T07:07:44;100757.69;;;13.73;74.39
75972;BME280;64651;47.540;19.088;2023-05-14T07:12:46;100767.78;;;14.11;73.05
75972;BME280;64651;47.540;19.088;2023-05-14T07:17:48;100759.19;;;14.37;70.89
75972;BME280;64651;47.540;19.088;2023-05-14T07:22:51;100760.38;;;14.54;69.74
75972;BME280;64651;47.540;19.088;2023-05-14T07:27:53;100732.63;;;14.78;68.57
75972;BME280;64651;47.540;19.088;2023-05-14T07:32:56;100743.16;;;14.95;67.84
75972;BME280;64651;47.540;19.088;2023-05-14T07:37:58;100736.22;;;14.97;66.39
75972;BME280;64651;47.540;19.088;2023-05-14T07:43:01;100730.66;;;15.49;66.33
75972;BME280;64651;47.540;19.088;2023-05-14T07:48:03;100724.91;;;15.77;64.86
75972;BME280;64651;47.540;19.088;2023-05-14T07:53:06;100729.97;;;16.03;64.74
75972;BME280;64651;47.540;19.088;2023-05-14T07:58:09;100726.66;;;16.01;64.71
75972;BME280;64651;47.540;19.088;2023-05-14T08:03:11;100711.63;;;15.74;64.27
75972;BME280;64651;47.540;19.088;2023-05-14T08:08:14;100709.16;;;15.87;64.08
75972;BME280;64651;47.540;19.088;2023-05-14T08:13:17;100688.00;;;15.77;64.27
75972;BME280;64651;47.540;19.088;2023-05-14T08:18:19;100685.97;;;15.50;65.07
75972;BME280;64651;47.540;19.088;2023-05-14T08:23:21;100689.00;;;15.54;65.33
75972;BME280;64651;47.540;19.088;2023-05-14T08:28:23;100679.47;;;15.27;67.20
75972;BME280;64651;47.540;19.088;2023-05-14T08:33:26;100687.97;;;15.31;67.49
75972;BME280;64651;47.540;19.088;2023-05-14T08:38:28;100669.25;;;15.09;68.30
75972;BME280;64651;47.540;19.088;2023-05-14T08:48:55;100663.91;;;14.61;71.27
75972;BME280;64651;47.540;19.088;2023-05-14T08:54:01;100655.34;;;14.77;71.26
75972;BME280;64651;47.540;19.088;2023-05-14T08:59:04;100649.34;;;14.88;70.44
75972;BME280;64651;47.540;19.088;2023-05-14T09:04:06;100618.31;;;14.73;71.51
75972;BME280;64651;47.540;19.088;2023-05-14T09:09:09;100652.59;;;14.58;72.87
75972;BME280;64651;47.540;19.088;2023-05-14T09:14:12;100640.25;;;14.69;72.22
75972;BME280;64651;47.540;19.088;2023-05-14T09:19:14;100654.09;;;14.88;71.31
75972;BME280;64651;47.540;19.088;2023-05-14T09:24:20;100642.19;;;14.87;71.70
75972;BME280;64651;47.540;19.088;2023-05-14T09:29:28;100634.53;;;14.98;72.39
75972;BME280;64651;47.540;19.088;2023-05-14T09:34:33;100638.22;;;14.93;73.06
75972;BME280;64651;47.540;19.088;2023-05-14T09:39:36;100619.31;;;14.95;73.25
75972;BME280;64651;47.540;19.088;2023-05-14T09:44:39;100622.53;;;15.02;73.23
75972;BME280;64651;47.540;19.088;2023-05-14T09:49:41;100623.25;;;15.08;73.00
75972;BME280;64651;47.540;19.088;2023-05-14T09:54:45;100622.22;;;15.04;74.18
75972;BME280;64651;47.540;19.088;2023-05-14T09:59:48;100599.09;;;14.95;74.78
75972;BME280;64651;47.540;19.088;2023-05-14T10:04:52;100605.56;;;14.90;74.69
75972;BME280;64651;47.540;19.088;2023-05-14T10:10:01;100609.19;;;15.05;74.46
75972;BME280;64651;47.540;19.088;2023-05-14T10:15:15;100583.13;;;15.06;74.23
75972;BME280;64651;47.540;19.088;2023-05-14T10:20:19;100567.66;;;15.18;73.73
75972;BME280;64651;47.540;19.088;2023-05-14T10:25:22;100556.88;;;15.30;78.17
75972;BME280;64651;47.540;19.088;2023-05-14T10:30:25;100514.59;;;15.52;75.23
75972;BME280;64651;47.540;19.088;2023-05-14T10:35:28;100496.59;;;15.99;73.95
75972;BME280;64651;47.540;19.088;2023-05-14T10:40:30;100518.16;;;16.16;73.07
75972;BME280;64651;47.540;19.088;2023-05-14T10:45:33;100517.06;;;15.67;73.46
75972;BME280;64651;47.540;19.088;2023-05-14T10:50:35;100524.56;;;15.53;73.82
75972;BME280;64651;47.540;19.088;2023-05-14T10:55:37;100533.88;;;15.30;74.52
75972;BME280;64651;47.540;19.088;2023-05-14T11:00:40;100521.84;;;15.34;74.92
75972;BME280;64651;47.540;19.088;2023-05-14T11:05:43;100513.53;;;15.34;74.54
75972;BME280;64651;47.540;19.088;2023-05-14T11:10:46;100522.75;;;15.43;74.43
75972;BME280;64651;47.540;19.088;2023-05-14T11:15:48;100521.97;;;15.29;74.99
75972;BME280;64651;47.540;19.088;2023-05-14T11:20:50;100516.59;;;15.19;75.43
75972;BME280;64651;47.540;19.088;2023-05-14T11:25:54;100504.72;;;15.05;76.71
75972;BME280;64651;47.540;19.088;2023-05-14T11:30:57;100499.38;;;15.09;77.68
75972;BME280;64651;47.540;19.088;2023-05-14T11:36:00;100498.75;;;14.98;79.09
75972;BME280;64651;47.540;19.088;2023-05-14T11:41:02;100492.25;;;14.89;79.45
75972;BME280;64651;47.540;19.088;2023-05-14T11:46:06;100492.06;;;14.85;79.77
75972;BME280;64651;47.540;19.088;2023-05-14T11:51:08;100499.34;;;14.81;80.32
75972;BME280;64651;47.540;19.088;2023-05-14T11:56:11;100484.75;;;14.62;80.31
75972;BME280;64651;47.540;19.088;2023-05-14T12:01:13;100496.91;;;14.29;83.80
75972;BME280;64651;47.540;19.088;2023-05-14T12:06:17;100489.66;;;14.33;82.60
75972;BME280;64651;47.540;19.088;2023-05-14T12:11:20;100482.47;;;14.32;82.66
75972;BME280;64651;47.540;19.088;2023-05-14T12:16:22;100470.78;;;14.02;86.03
75972;BME280;64651;47.540;19.088;2023-05-14T12:21:26;100462.78;;;14.01;84.24
75972;BME280;64651;47.540;19.088;2023-05-14T12:26:31;100460.81;;;14.01;85.12
75972;BME280;64651;47.540;19.088;2023-05-14T12:31:34;100444.31;;;13.96;85.40
75972;BME280;64651;47.540;19.088;2023-05-14T12:36:37;100443.16;;;13.97;85.62
75972;BME280;64651;47.540;19.088;2023-05-14T12:41:39;100443.34;;;13.87;86.66
75972;BME280;64651;47.540;19.088;2023-05-14T12:46:42;100441.69;;;13.86;87.63
75972;BME280;64651;47.540;19.088;2023-05-14T12:51:44;100428.78;;;13.63;88.85
75972;BME280;64651;47.540;19.088;2023-05-14T12:56:47;100431.97;;;13.32;92.75
75972;BME280;64651;47.540;19.088;2023-05-14T13:01:51;100422.12;;;13.45;92.55
75972;BME280;64651;47.540;19.088;2023-05-14T13:06:53;100405.09;;;13.38;91.96
75972;BME280;64651;47.540;19.088;2023-05-14T13:11:55;100401.94;;;13.45;92.01
75972;BME280;64651;47.540;19.088;2023-05-14T13:16:57;100390.00;;;13.49;92.12
75972;BME280;64651;47.540;19.088;2023-05-14T13:22:00;100388.66;;;13.28;94.38
75972;BME280;64651;47.540;19.088;2023-05-14T13:27:02;100388.03;;;13.31;94.37
75972;BME280;64651;47.540;19.088;2023-05-14T13:32:04;100374.31;;;13.26;94.24
75972;BME280;64651;47.540;19.088;2023-05-14T13:37:07;100375.75;;;13.23;94.06
75972;BME280;64651;47.540;19.088;2023-05-14T13:42:09;100361.84;;;13.28;93.78
75972;BME280;64651;47.540;19.088;2023-05-14T13:47:11;100345.41;;;13.18;95.25
75972;BME280;64651;47.540;19.088;2023-05-14T13:52:13;100345.41;;;13.18;95.69
75972;BME280;64651;47.540;19.088;2023-05-14T13:57:16;100333.03;;;13.16;96.13
75972;BME280;64651;47.540;19.088;2023-05-14T14:02:18;100314.09;;;13.04;96.05
75972;BME280;64651;47.540;19.088;2023-05-14T14:07:20;100325.59;;;13.11;95.81
75972;BME280;64651;47.540;19.088;2023-05-14T14:12:22;100328.81;;;13.18;95.54
75972;BME280;64651;47.540;19.088;2023-05-14T14:17:25;100309.28;;;13.15;95.70
75972;BME280;64651;47.540;19.088;2023-05-14T14:22:27;100286.56;;;12.99;95.97
75972;BME280;64651;47.540;19.088;2023-05-14T14:27:30;100313.09;;;12.95;97.62
75972;BME280;64651;47.540;19.088;2023-05-14T14:32:36;100309.91;;;13.07;97.05
75972;BME280;64651;47.540;19.088;2023-05-14T14:37:40;100310.81;;;13.02;96.84
75972;BME280;64651;47.540;19.088;2023-05-14T14:42:42;100311.25;;;13.09;96.96
75972;BME280;64651;47.540;19.088;2023-05-14T14:47:45;100302.69;;;13.11;97.18
75972;BME280;64651;47.540;19.088;2023-05-14T14:52:47;100288.28;;;13.14;97.30
75972;BME280;64651;47.540;19.088;2023-05-14T14:57:49;100287.50;;;13.08;97.17
75972;BME280;64651;47.540;19.088;2023-05-14T15:02:51;100302.44;;;13.07;97.41
75972;BME280;64651;47.540;19.088;2023-05-14T15:07:54;100288.06;;;13.10;97.66
75972;BME280;64651;47.540;19.088;2023-05-14T15:12:57;100275.06;;;12.92;97.18
75972;BME280;64651;47.540;19.088;2023-05-14T15:18:00;100253.69;;;12.79;96.87
75972;BME280;64651;47.540;19.088;2023-05-14T15:23:03;100263.53;;;12.66;97.10
75972;BME280;64651;47.540;19.088;2023-05-14T15:28:05;100253.41;;;12.62;97.14
75972;BME280;64651;47.540;19.088;2023-05-14T15:33:09;100243.38;;;12.47;96.99
75972;BME280;64651;47.540;19.088;2023-05-14T15:38:11;100249.09;;;12.50;97.30
75972;BME280;64651;47.540;19.088;2023-05-14T15:43:14;100251.88;;;12.50;97.57
75972;BME280;64651;47.540;19.088;2023-05-14T15:48:16;100239.47;;;12.29;98.50
75972;BME280;64651;47.540;19.088;2023-05-14T15:53:18;100246.72;;;12.20;100.00
75972;BME280;64651;47.540;19.088;2023-05-14T15:58:20;100237.59;;;12.25;100.00
75972;BME280;64651;47.540;19.088;2023-05-14T16:03:23;100223.47;;;12.26;100.00
75972;BME280;64651;47.540;19.088;2023-05-14T16:08:25;100185.47;;;12.23;100.00
75972;BME280;64651;47.540;19.088;2023-05-14T16:13:28;100181.53;;;12.29;100.00
75972;BME280;64651;47.540;19.088;2023-05-14T16:18:30;100181.75;;;12.33;100.00
75972;BME280;64651;47.540;19.088;2023-05-14T16:23:32;100184.75;;;12.36;100.00
75972;BME280;64651;47.540;19.088;2023-05-14T16:28:34;100184.00;;;12.31;100.00
75972;BME280;64651;47.540;19.088;2023-05-14T16:33:36;100201.22;;;12.41;99.93
75972;BME280;64651;47.540;19.088;2023-05-14T16:38:39;100197.94;;;12.39;99.47
75972;BME280;64651;47.540;19.088;2023-05-14T16:44:01;100200.47;;;12.36;99.40
75972;BME280;64651;47.540;19.088;2023-05-14T16:49:03;100186.06;;;12.39;99.35
75972;BME280;64651;47.540;19.088;2023-05-14T16:54:05;100175.87;;;12.39;99.27
75972;BME280;64651;47.540;19.088;2023-05-14T16:59:07;100162.81;;;12.45;98.97
75972;BME280;64651;47.540;19.088;2023-05-14T17:04:10;100147.16;;;12.40;98.75
75972;BME280;64651;47.540;19.088;2023-05-14T17:09:12;100143.28;;;12.41;99.22
75972;BME280;64651;47.540;19.088;2023-05-14T17:14:14;100154.50;;;12.50;99.13
75972;BME280;64651;47.540;19.088;2023-05-14T17:19:17;100137.16;;;12.44;98.92
75972;BME280;64651;47.540;19.088;2023-05-14T17:24:19;100130.97;;;12.52;98.93
75972;BME280;64651;47.540;19.088;2023-05-14T17:29:21;100124.87;;;12.55;98.68
75972;BME280;64651;47.540;19.088;2023-05-14T17:34:24;100126.44;;;12.43;98.93
75972;BME280;64651;47.540;19.088;2023-05-14T17:39:26;100128.59;;;12.46;99.21
75972;BME280;64651;47.540;19.088;2023-05-14T17:44:29;100112.31;;;12.44;99.83
75972;BME280;64651;47.540;19.088;2023-05-14T17:49:31;100111.81;;;12.42;100.00
75972;BME280;64651;47.540;19.088;2023-05-14T17:54:33;100104.75;;;12.36;100.00
75972;BME280;64651;47.540;19.088;2023-05-14T17:59:35;100093.78;;;12.31;100.00
75972;BME280;64651;47.540;19.088;2023-05-14T18:04:38;100081.19;;;12.25;100.00
75972;BME280;64651;47.540;19.088;2023-05-14T18:09:40;100087.19;;;12.27;100.00
75972;BME280;64651;47.540;19.088;2023-05-14T18:14:42;100067.41;;;12.25;100.00
75972;BME280;64651;47.540;19.088;2023-05-14T18:19:46;100072.91;;;12.25;100.00
75972;BME280;64651;47.540;19.088;2023-05-14T18:24:49;100068.13;;;12.31;100.00
75972;BME280;64651;47.540;19.088;2023-05-14T18:29:51;100082.13;;;12.34;100.00
75972;BME280;64651;47.540;19.088;2023-05-14T18:34:54;100071.72;;;12.31;100.00
75972;BME280;64651;47.540;19.088;2023-05-14T18:39:56;100094.91;;;12.49;100.00
75972;BME280;64651;47.540;19.088;2023-05-14T18:44:58;100094.19;;;12.38;100.00
75972;BME280;64651;47.540;19.088;2023-05-14T18:50:01;100096.59;;;12.26;100.00
75972;BME280;64651;47.540;19.088;2023-05-14T18:55:04;100099.81;;;12.33;100.00
75972;BME280;64651;47.540;19.088;2023-05-14T19:00:07;100089.31;;;12.35;100.00
75972;BME280;64651;47.540;19.088;2023-05-14T19:05:09;100094.66;;;12.45;100.00
75972;BME280;64651;47.540;19.088;2023-05-14T19:10:11;100093.78;;;12.31;100.00
75972;BME280;64651;47.540;19.088;2023-05-14T19:15:15;100081.75;;;12.22;100.00
75972;BME280;64651;47.540;19.088;2023-05-14T19:20:17;100073.12;;;12.29;100.00
75972;BME280;64651;47.540;19.088;2023-05-14T19:25:19;100068.16;;;12.44;100.00
75972;BME280;64651;47.540;19.088;2023-05-14T19:30:22;100071.53;;;12.41;100.00
75972;BME280;64651;47.540;19.088;2023-05-14T19:35:24;100065.50;;;12.39;100.00
75972;BME280;64651;47.540;19.088;2023-05-14T19:40:27;100072.91;;;12.44;100.00
75972;BME280;64651;47.540;19.088;2023-05-14T19:45:29;100064.31;;;12.45;100.00
75972;BME280;64651;47.540;19.088;2023-05-14T19:50:32;100066.03;;;12.41;100.00
75972;BME280;64651;47.540;19.088;2023-05-14T19:55:34;100058.28;;;12.43;100.00
75972;BME280;64651;47.540;19.088;2023-05-14T20:00:36;100050.50;;;12.45;100.00
75972;BME280;64651;47.540;19.088;2023-05-14T20:05:39;100048.06;;;12.44;100.00
75972;BME280;64651;47.540;19.088;2023-05-14T20:10:41;100058.19;;;12.48;100.00
75972;BME280;64651;47.540;19.088;2023-05-14T20:15:45;100034.00;;;12.59;100.00
75972;BME280;64651;47.540;19.088;2023-05-14T20:20:47;100050.34;;;12.55;100.00
75972;BME280;64651;47.540;19.088;2023-05-14T20:25:50;100037.50;;;12.65;100.00
75972;BME280;64651;47.540;19.088;2023-05-14T20:30:52;100031.38;;;12.68;100.00
75972;BME280;64651;47.540;19.088;2023-05-14T20:35:55;100022.56;;;12.66;100.00
75972;BME280;64651;47.540;19.088;2023-05-14T20:40:57;100021.97;;;12.69;100.00
75972;BME280;64651;47.540;19.088;2023-05-14T20:45:59;100005.81;;;12.62;100.00
75972;BME280;64651;47.540;19.088;2023-05-14T20:51:02;100016.97;;;12.71;100.00
75972;BME280;64651;47.540;19.088;2023-05-14T20:56:07;99997.31;;;12.58;100.00
75972;BME280;64651;47.540;19.088;2023-05-14T21:01:09;100001.62;;;12.65;100.00
75972;BME280;64651;47.540;19.088;2023-05-14T21:06:11;99988.72;;;12.60;100.00
75972;BME280;64651;47.540;19.088;2023-05-14T21:11:13;99984.31;;;12.59;100.00
75972;BME280;64651;47.540;19.088;2023-05-14T21:16:16;99978.22;;;12.62;100.00
75972;BME280;64651;47.540;19.088;2023-05-14T21:21:18;99964.00;;;12.55;100.00
75972;BME280;64651;47.540;19.088;2023-05-14T21:26:20;99969.13;;;12.62;100.00
75972;BME280;64651;47.540;19.088;2023-05-14T21:31:23;99971.25;;;12.65;100.00
75972;BME280;64651;47.540;19.088;2023-05-14T21:36:25;99966.56;;;12.65;100.00
75972;BME280;64651;47.540;19.088;2023-05-14T21:41:30;99961.22;;;12.69;100.00
75972;BME280;64651;47.540;19.088;2023-05-14T21:46:32;99936.88;;;12.57;100.00
75972;BME280;64651;47.540;19.088;2023-05-14T21:51:34;99917.69;;;12.66;100.00
75972;BME280;64651;47.540;19.088;2023-05-14T21:56:36;99893.13;;;12.50;100.00
75972;BME280;64651;47.540;19.088;2023-05-14T22:01:39;99905.31;;;12.49;100.00
75972;BME280;64651;47.540;19.088;2023-05-14T22:07:02;99895.78;;;12.42;100.00
75972;BME280;64651;47.540;19.088;2023-05-14T22:12:05;99903.97;;;12.47;100.00
75972;BME280;64651;47.540;19.088;2023-05-14T22:17:07;99893.31;;;12.40;100.00
75972;BME280;64651;47.540;19.088;2023-05-14T22:22:09;99910.50;;;12.51;100.00
75972;BME280;64651;47.540;19.088;2023-05-14T22:27:12;99912.38;;;12.55;100.00
75972;BME280;64651;47.540;19.088;2023-05-14T22:32:14;99904.91;;;12.56;100.00
75972;BME280;64651;47.540;19.088;2023-05-14T22:37:16;99912.16;;;12.66;100.00
75972;BME280;64651;47.540;19.088;2023-05-14T22:42:19;99915.13;;;12.69;100.00
75972;BME280;64651;47.540;19.088;2023-05-14T22:47:21;99916.78;;;12.70;100.00
75972;BME280;64651;47.540;19.088;2023-05-14T22:52:24;99915.66;;;12.71;100.00
75972;BME280;64651;47.540;19.088;2023-05-14T22:57:26;99911.97;;;12.76;100.00
75972;BME280;64651;47.540;19.088;2023-05-14T23:02:29;99910.75;;;12.68;100.00
75972;BME280;64651;47.540;19.088;2023-05-14T23:07:31;99913.53;;;12.68;100.00
75972;BME280;64651;47.540;19.088;2023-05-14T23:12:34;99890.69;;;12.63;100.00
75972;BME280;64651;47.540;19.088;2023-05-14T23:17:36;99906.56;;;12.71;100.00
75972;BME280;64651;47.540;19.088;2023-05-14T23:22:39;99894.69;;;12.70;100.00
75972;BME280;64651;47.540;19.088;2023-05-14T23:27:41;99876.28;;;12.66;100.00
75972;BME280;64651;47.540;19.088;2023-05-14T23:32:43;99881.00;;;12.79;100.00
75972;BME280;64651;47.540;19.088;2023-05-14T23:37:46;99868.03;;;12.79;100.00
75972;BME280;64651;47.540;19.088;2023-05-14T23:42:50;99849.00;;;12.78;100.00
75972;BME280;64651;47.540;19.088;2023-05-14T23:47:52;99852.34;;;12.75;100.00
75972;BME280;64651;47.540;19.088;2023-05-14T23:52:55;99847.66;;;12.75;100.00
75972;BME280;64651;47.540;19.088;2023-05-14T23:57:57;99831.09;;;12.75;100.00
